Time;durP1;ratioP1;P1;durP2;ratioP2;P2;SDS_P1;SDS_P2;PMS_P1;PMS_P2;Temp;Humidity;BMP_temperature;BMP_pressure;BME280_temperature;BME280_humidity;BME280_pressure;Samples;Min_cycle;Max_cycle;Signal;HPM_P1;HPM_P2
2023/01/15 00:01:49;;;;;;;8.45;2.05;;;6.80;99.90;;;;;;5051815;28;20051;-63
2023/01/15 00:04:14;;;;;;;12.40;2.67;;;6.80;99.90;;;;;;5053283;28;20041;-63
2023/01/15 00:06:41;;;;;;;12.57;3.17;;;6.80;99.90;;;;;;5036073;28;20128;-63
2023/01/15 00:09:12;;;;;;;11.27;3.30;;;6.80;99.90;;;;;;5035850;28;20425;-63
2023/01/15 00:11:37;;;;;;;11.48;2.22;;;6.80;99.90;;;;;;5053047;28;20045;-63
2023/01/15 00:14:03;;;;;;;10.45;2.30;;;6.80;99.90;;;;;;5051928;28;20448;-63
2023/01/15 00:16:29;;;;;;;12.27;3.15;;;6.70;99.90;;;;;;5053207;28;20405;-63
2023/01/15 00:18:58;;;;;;;14.07;3.13;;;6.70;99.90;;;;;;5052713;28;20045;-63
2023/01/15 00:21:26;;;;;;;11.10;2.13;;;6.70;99.90;;;;;;5053439;28;20048;-63
2023/01/15 00:29:22;;;;;;;12.80;2.28;;;6.60;99.90;;;;;;5052055;28;20128;-63
2023/01/15 00:31:58;;;;;;;7.95;1.92;;;6.60;99.90;;;;;;5035453;28;20070;-63
2023/01/15 00:34:25;;;;;;;10.32;2.60;;;6.50;99.90;;;;;;5054272;28;20045;-63
2023/01/15 00:36:51;;;;;;;14.48;3.63;;;6.50;99.90;;;;;;5051536;28;20059;-63
2023/01/15 00:39:17;;;;;;;10.85;2.35;;;6.50;99.90;;;;;;5052749;28;20486;-63
2023/01/15 00:41:43;;;;;;;8.65;2.17;;;6.50;99.90;;;;;;5052064;28;20041;-63
2023/01/15 00:44:09;;;;;;;13.15;2.30;;;6.50;99.90;;;;;;5051669;28;20050;-63
2023/01/15 00:46:34;;;;;;;11.68;2.92;;;6.50;99.90;;;;;;5053547;28;20073;-63
2023/01/15 00:49:00;;;;;;;10.00;2.13;;;6.40;99.90;;;;;;5053570;28;20079;-63
2023/01/15 00:51:26;;;;;;;14.88;3.17;;;6.40;99.90;;;;;;5051402;28;20073;-63
2023/01/15 00:53:52;;;;;;;12.63;2.97;;;6.40;99.90;;;;;;5051830;28;20032;-63
2023/01/15 00:56:17;;;;;;;15.10;3.20;;;6.40;99.90;;;;;;5051448;28;20074;-64
2023/01/15 00:58:45;;;;;;;13.32;2.80;;;6.40;99.90;;;;;;5051660;28;20394;-63
2023/01/15 01:01:10;;;;;;;12.77;3.08;;;6.40;99.90;;;;;;5052363;28;20108;-63
2023/01/15 01:03:36;;;;;;;12.13;2.97;;;6.50;99.90;;;;;;5051049;28;20174;-63
2023/01/15 01:06:02;;;;;;;8.75;3.08;;;6.40;99.90;;;;;;5051726;28;20395;-63
2023/01/15 01:08:28;;;;;;;12.18;3.08;;;6.50;99.90;;;;;;5052042;28;20037;-63
2023/01/15 01:11:05;;;;;;;13.15;2.60;;;6.40;99.90;;;;;;5050790;28;20037;-63
2023/01/15 01:13:31;;;;;;;12.80;2.72;;;6.40;99.90;;;;;;5035395;28;20045;-63
2023/01/15 01:15:57;;;;;;;18.25;3.05;;;6.40;99.90;;;;;;5053068;28;20051;-63
2023/01/15 01:18:23;;;;;;;15.90;3.40;;;6.50;99.90;;;;;;5051080;28;20041;-63
2023/01/15 01:20:49;;;;;;;12.18;2.92;;;6.50;99.90;;;;;;5051117;28;20040;-63
2023/01/15 01:23:14;;;;;;;13.55;2.60;;;6.50;99.90;;;;;;5051714;28;20056;-63
2023/01/15 01:25:40;;;;;;;9.45;3.33;;;6.50;99.90;;;;;;5032996;28;20063;-63
2023/01/15 01:28:05;;;;;;;13.57;3.22;;;6.40;99.90;;;;;;5051978;28;20049;-63
2023/01/15 01:30:31;;;;;;;7.38;2.22;;;6.50;99.90;;;;;;5035005;28;20041;-63
2023/01/15 01:32:57;;;;;;;19.17;2.85;;;6.50;99.90;;;;;;5050296;28;20048;-63
2023/01/15 01:35:22;;;;;;;14.10;3.15;;;6.50;99.90;;;;;;5052838;28;20036;-63
2023/01/15 01:37:49;;;;;;;14.68;2.78;;;6.50;99.90;;;;;;5051084;28;20040;-63
2023/01/15 01:40:15;;;;;;;12.20;3.10;;;6.50;99.90;;;;;;5050544;28;20053;-63
2023/01/15 01:42:41;;;;;;;11.85;3.40;;;6.40;99.90;;;;;;5052318;28;20040;-63
2023/01/15 01:45:17;;;;;;;11.52;2.80;;;6.40;99.90;;;;;;5051378;28;20506;-63
2023/01/15 01:47:44;;;;;;;23.85;3.38;;;6.40;99.90;;;;;;5051452;28;20076;-63
2023/01/15 01:50:12;;;;;;;12.95;3.35;;;6.40;99.90;;;;;;5052454;28;20053;-63
2023/01/15 01:52:47;;;;;;;12.82;2.92;;;6.40;99.90;;;;;;5050271;28;20049;-64
2023/01/15 01:55:15;;;;;;;13.00;2.73;;;6.30;99.90;;;;;;5051515;28;20044;-63
2023/01/15 01:57:41;;;;;;;15.15;2.72;;;6.30;99.90;;;;;;5050688;28;20049;-63
2023/01/15 02:00:10;;;;;;;13.73;2.75;;;6.30;99.90;;;;;;5033746;28;20044;-63
2023/01/15 02:02:35;;;;;;;10.57;3.70;;;6.30;99.90;;;;;;5050803;28;20124;-64
2023/01/15 02:05:02;;;;;;;12.30;2.65;;;6.20;99.90;;;;;;5051988;28;20132;-63
2023/01/15 02:07:32;;;;;;;13.77;2.38;;;6.20;99.90;;;;;;5050135;28;20053;-63
2023/01/15 02:09:58;;;;;;;11.38;2.75;;;6.20;99.90;;;;;;5050770;28;20041;-64
2023/01/15 02:12:35;;;;;;;15.73;2.58;;;6.20;99.90;;;;;;5050985;28;20494;-63
2023/01/15 02:15:23;;;;;;;8.35;1.88;;;6.30;99.90;;;;;;5050074;28;20037;-63
2023/01/15 02:17:59;;;;;;;9.80;2.38;;;6.30;99.90;;;;;;5050469;28;20048;-64
2023/01/15 02:20:32;;;;;;;15.45;3.17;;;6.30;99.90;;;;;;5052320;28;20037;-64
2023/01/15 02:23:18;;;;;;;11.00;3.30;;;6.30;99.90;;;;;;5050632;28;20044;-64
2023/01/15 02:26:17;;;;;;;7.10;2.15;;;6.30;99.90;;;;;;5050182;28;20129;-64
2023/01/15 02:28:47;;;;;;;12.45;2.55;;;6.30;99.90;;;;;;5049460;28;20044;-63
2023/01/15 02:31:44;;;;;;;15.85;3.58;;;6.30;99.90;;;;;;5051933;28;20552;-64
2023/01/15 02:34:15;;;;;;;9.73;2.50;;;6.30;99.90;;;;;;5049756;28;20552;-63
2023/01/15 02:36:46;;;;;;;8.73;2.38;;;6.30;99.90;;;;;;5050706;28;20116;-63
2023/01/15 02:39:15;;;;;;;9.27;3.72;;;6.30;99.90;;;;;;5056479;28;20099;-64
2023/01/15 02:41:46;;;;;;;11.43;2.38;;;6.30;99.90;;;;;;5055024;28;20049;-64
2023/01/15 02:44:16;;;;;;;11.88;2.70;;;6.40;99.90;;;;;;5056198;28;20037;-64
2023/01/15 02:46:43;;;;;;;18.90;3.35;;;6.40;99.90;;;;;;5055603;28;20163;-64
2023/01/15 02:49:12;;;;;;;10.68;2.22;;;6.30;99.90;;;;;;5037298;28;20045;-63
2023/01/15 02:51:44;;;;;;;11.55;2.75;;;6.30;99.90;;;;;;5055766;28;20033;-63
2023/01/15 02:54:14;;;;;;;9.20;2.90;;;6.30;99.90;;;;;;5054749;28;20044;-64
2023/01/15 02:56:43;;;;;;;9.50;2.50;;;6.30;99.90;;;;;;5054377;28;20063;-64
2023/01/15 02:59:28;;;;;;;9.63;2.67;;;6.30;99.90;;;;;;5054458;28;20494;-64
2023/01/15 03:02:01;;;;;;;12.52;2.70;;;6.20;99.90;;;;;;5054040;28;20393;-64
2023/01/15 03:04:42;;;;;;;17.40;3.42;;;6.20;99.90;;;;;;5053542;28;20405;-64
2023/01/15 03:07:25;;;;;;;10.40;2.80;;;6.20;99.90;;;;;;5054303;28;20090;-64
2023/01/15 03:09:55;;;;;;;7.95;2.30;;;6.20;99.90;;;;;;5053994;28;20047;-64
2023/01/15 03:13:01;;;;;;;9.70;2.50;;;6.20;99.90;;;;;;5055541;28;20041;-64
2023/01/15 03:18:18;;;;;;;11.75;3.00;;;6.10;99.90;;;;;;5053073;28;20045;-63
2023/01/15 03:20:50;;;;;;;11.30;2.40;;;6.20;99.90;;;;;;5055065;28;20401;-64
2023/01/15 03:23:21;;;;;;;9.60;2.10;;;6.20;99.90;;;;;;5054164;28;20045;-64
2023/01/15 03:25:48;;;;;;;8.50;1.90;;;6.20;99.90;;;;;;5052604;28;20387;-64
2023/01/15 03:28:20;;;;;;;15.45;4.25;;;6.20;99.90;;;;;;5055366;28;20079;-63
2023/01/15 03:30:45;;;;;;;13.00;2.67;;;6.10;99.90;;;;;;5053154;28;20048;-64
2023/01/15 03:33:11;;;;;;;10.57;2.38;;;6.10;99.90;;;;;;5053059;28;20037;-64
2023/01/15 03:35:45;;;;;;;10.80;3.47;;;6.10;99.90;;;;;;5053641;28;20036;-63
2023/01/15 03:38:13;;;;;;;11.13;2.58;;;6.10;99.90;;;;;;5036414;28;20468;-64
2023/01/15 03:40:47;;;;;;;9.70;2.30;;;6.10;99.90;;;;;;5036565;28;20052;-64
2023/01/15 03:46:05;;;;;;;12.55;2.80;;;6.20;99.90;;;;;;5052832;28;20111;-64
2023/01/15 03:48:38;;;;;;;11.00;2.40;;;6.20;99.90;;;;;;5054467;28;20029;-63
2023/01/15 03:51:21;;;;;;;10.73;3.05;;;6.10;99.90;;;;;;5037164;28;20048;-63
2023/01/15 03:53:54;;;;;;;12.25;2.33;;;6.10;99.90;;;;;;5052061;28;20076;-63
2023/01/15 03:56:47;;;;;;;13.70;3.15;;;6.10;99.90;;;;;;5055069;28;20033;-63
2023/01/15 03:59:19;;;;;;;10.35;2.40;;;6.10;99.90;;;;;;5052894;28;20123;-63
2023/01/15 04:01:47;;;;;;;7.68;2.00;;;6.10;99.90;;;;;;5053048;28;20083;-63
2023/01/15 04:04:14;;;;;;;11.05;2.50;;;6.10;99.90;;;;;;5053401;28;20084;-63
2023/01/15 04:06:42;;;;;;;12.18;2.55;;;6.10;99.90;;;;;;5052211;28;20501;-63
2023/01/15 04:09:09;;;;;;;11.13;2.47;;;6.10;99.90;;;;;;5053138;28;20041;-63
2023/01/15 04:11:36;;;;;;;11.93;2.28;;;6.00;99.90;;;;;;5052822;28;20037;-63
2023/01/15 04:14:02;;;;;;;9.60;2.35;;;6.00;99.90;;;;;;5052021;28;20037;-63
2023/01/15 04:16:29;;;;;;;8.88;2.58;;;6.00;99.90;;;;;;5052929;28;20037;-63
2023/01/15 04:18:56;;;;;;;9.02;2.35;;;6.00;99.90;;;;;;5053680;28;20044;-63
2023/01/15 04:21:21;;;;;;;7.13;2.20;;;6.00;99.90;;;;;;5053624;28;20494;-64
2023/01/15 04:23:48;;;;;;;12.25;2.70;;;6.00;99.90;;;;;;5052430;28;20098;-64
2023/01/15 04:26:14;;;;;;;11.43;3.15;;;5.90;99.90;;;;;;5052822;28;20049;-64
2023/01/15 04:28:40;;;;;;;13.95;2.40;;;5.90;99.90;;;;;;5051352;28;20090;-64
2023/01/15 04:31:06;;;;;;;7.32;1.95;;;5.80;99.90;;;;;;5054090;28;20425;-64
2023/01/15 04:33:31;;;;;;;8.38;2.05;;;5.80;99.90;;;;;;5054202;28;20101;-64
2023/01/15 04:36:02;;;;;;;11.25;2.90;;;5.80;99.90;;;;;;5053126;28;20045;-63
2023/01/15 04:38:33;;;;;;;9.05;2.60;;;5.80;99.90;;;;;;5054021;28;20037;-63
2023/01/15 04:46:30;;;;;;;9.60;3.38;;;5.70;99.90;;;;;;5052538;28;20053;-63
2023/01/15 04:48:56;;;;;;;8.20;2.20;;;5.70;99.90;;;;;;5052475;28;20075;-63
2023/01/15 04:51:22;;;;;;;11.63;2.55;;;5.70;99.90;;;;;;5052538;28;20048;-63
2023/01/15 04:53:47;;;;;;;14.35;3.45;;;5.70;99.90;;;;;;5035750;28;20138;-63
2023/01/15 04:56:13;;;;;;;11.27;2.38;;;5.70;99.90;;;;;;5051528;28;20040;-63
2023/01/15 04:58:39;;;;;;;13.35;2.55;;;5.70;99.90;;;;;;5052440;28;20037;-63
2023/01/15 05:01:15;;;;;;;8.23;2.80;;;5.70;99.90;;;;;;5052270;28;20037;-63
2023/01/15 05:03:41;;;;;;;7.55;1.85;;;5.70;99.90;;;;;;5050804;28;20490;-63
2023/01/15 05:06:08;;;;;;;9.52;2.38;;;5.60;99.90;;;;;;5035564;28;20041;-63
2023/01/15 05:08:35;;;;;;;10.75;2.60;;;5.60;99.90;;;;;;5035273;28;20045;-63
2023/01/15 05:11:05;;;;;;;13.30;3.17;;;5.60;99.90;;;;;;5052073;28;20041;-63
2023/01/15 05:13:32;;;;;;;9.40;2.30;;;5.60;99.90;;;;;;5051948;28;20037;-63
2023/01/15 05:16:28;;;;;;;9.95;2.22;;;5.60;99.90;;;;;;5051681;28;20066;-63
2023/01/15 05:18:57;;;;;;;14.98;3.05;;;5.60;99.90;;;;;;5044042;28;20174;-63
2023/01/15 05:21:25;;;;;;;9.65;2.13;;;5.60;99.90;;;;;;5053344;28;20403;-63
2023/01/15 05:23:53;;;;;;;10.63;3.08;;;5.60;99.90;;;;;;5050304;28;20413;-63
2023/01/15 05:26:20;;;;;;;6.30;1.70;;;5.50;99.90;;;;;;5053116;28;20060;-63
2023/01/15 05:28:46;;;;;;;8.70;2.92;;;5.50;99.90;;;;;;5050982;28;20517;-63
2023/01/15 05:31:14;;;;;;;14.60;2.50;;;5.50;99.90;;;;;;5052055;28;20041;-63
2023/01/15 05:33:41;;;;;;;14.05;2.90;;;5.50;99.90;;;;;;5051173;28;20051;-63
2023/01/15 05:36:11;;;;;;;19.30;3.17;;;5.50;99.90;;;;;;5051626;28;20051;-63
2023/01/15 05:38:38;;;;;;;8.90;2.35;;;5.50;99.90;;;;;;5034055;28;20072;-63
2023/01/15 05:43:55;;;;;;;7.90;3.65;;;5.50;99.90;;;;;;5052145;28;20045;-63
2023/01/15 05:46:22;;;;;;;11.80;2.17;;;5.40;99.90;;;;;;5050561;28;20033;-63
2023/01/15 05:48:48;;;;;;;7.88;2.17;;;5.40;99.90;;;;;;5050765;28;20048;-63
2023/01/15 05:51:13;;;;;;;11.25;2.33;;;5.40;99.90;;;;;;5051349;28;20032;-63
2023/01/15 05:53:39;;;;;;;8.57;2.67;;;5.40;99.90;;;;;;5051399;28;20048;-63
2023/01/15 05:56:05;;;;;;;13.65;2.10;;;5.40;99.90;;;;;;5051102;28;20568;-63
2023/01/15 05:58:31;;;;;;;11.90;2.00;;;5.30;99.90;;;;;;5052591;28;20083;-63
2023/01/15 06:00:57;;;;;;;12.45;3.15;;;5.40;99.90;;;;;;5033526;28;20045;-63
2023/01/15 06:03:25;;;;;;;9.30;1.90;;;5.30;99.90;;;;;;5051236;28;20041;-63
2023/01/15 06:05:51;;;;;;;19.27;3.42;;;5.30;99.90;;;;;;5049960;28;20041;-63
2023/01/15 06:08:17;;;;;;;12.52;2.85;;;5.20;99.90;;;;;;5051029;28;20132;-63
2023/01/15 06:10:46;;;;;;;8.80;1.80;;;5.30;99.90;;;;;;5050214;28;20124;-63
2023/01/15 06:13:13;;;;;;;9.30;2.15;;;5.30;99.90;;;;;;5050142;28;20119;-63
2023/01/15 06:15:39;;;;;;;11.18;2.20;;;5.30;99.90;;;;;;5050528;28;20120;-63
2023/01/15 06:18:05;;;;;;;9.43;1.95;;;5.30;99.90;;;;;;5052110;28;20451;-63
2023/01/15 06:20:30;;;;;;;9.65;2.13;;;5.30;99.90;;;;;;5051509;28;20055;-63
2023/01/15 06:22:56;;;;;;;5.45;1.90;;;5.30;99.90;;;;;;5033794;28;20037;-63
2023/01/15 06:25:22;;;;;;;7.65;2.30;;;5.30;99.90;;;;;;5050582;28;20092;-63
2023/01/15 06:27:48;;;;;;;8.40;2.22;;;5.40;99.90;;;;;;5050721;28;20115;-63
2023/01/15 06:30:14;;;;;;;12.18;2.38;;;5.40;99.90;;;;;;5051952;28;20121;-63
2023/01/15 06:32:40;;;;;;;7.13;1.85;;;5.40;99.90;;;;;;5050647;28;20102;-63
2023/01/15 06:35:06;;;;;;;11.02;2.28;;;5.40;99.90;;;;;;5050279;28;20478;-63
2023/01/15 06:37:32;;;;;;;11.75;2.00;;;5.40;99.90;;;;;;5051007;28;20386;-66
2023/01/15 06:39:58;;;;;;;8.07;2.03;;;5.40;99.90;;;;;;5051611;28;20036;-66
2023/01/15 06:47:54;;;;;;;8.10;2.22;;;5.40;99.90;;;;;;5049429;28;20119;-66
2023/01/15 06:50:20;;;;;;;8.15;2.33;;;5.40;99.90;;;;;;5050569;28;20045;-65
2023/01/15 06:52:46;;;;;;;11.38;2.42;;;5.40;99.90;;;;;;5051285;28;20397;-65
2023/01/15 06:55:11;;;;;;;9.52;1.83;;;5.30;99.90;;;;;;5048765;28;20044;-63
2023/01/15 06:57:38;;;;;;;7.70;1.88;;;5.30;99.90;;;;;;5050549;28;20052;-63
2023/01/15 07:00:08;;;;;;;9.23;2.03;;;5.30;99.90;;;;;;5050655;28;20110;-63
2023/01/15 07:02:35;;;;;;;6.88;2.13;;;5.30;99.90;;;;;;5049644;28;20044;-63
2023/01/15 07:05:00;;;;;;;10.73;3.25;;;5.30;99.90;;;;;;5051498;28;20191;-63
2023/01/15 07:07:27;;;;;;;7.85;2.20;;;5.40;99.90;;;;;;5050296;28;20108;-63
2023/01/15 07:09:53;;;;;;;10.10;2.33;;;5.40;99.90;;;;;;5050295;28;20049;-63
2023/01/15 07:12:22;;;;;;;8.13;2.00;;;5.40;99.90;;;;;;5051473;28;20481;-63
2023/01/15 07:14:48;;;;;;;11.43;2.92;;;5.40;99.90;;;;;;5033617;28;20040;-63
2023/01/15 07:17:13;;;;;;;9.25;2.13;;;5.40;99.90;;;;;;5033445;28;20493;-63
2023/01/15 07:19:39;;;;;;;15.73;3.05;;;5.40;99.90;;;;;;5049999;28;20120;-63
2023/01/15 07:22:06;;;;;;;13.15;2.95;;;5.50;99.90;;;;;;5033640;28;20529;-63
2023/01/15 07:24:32;;;;;;;9.55;2.10;;;5.50;99.90;;;;;;5053083;28;20167;-63
2023/01/15 07:26:58;;;;;;;10.02;2.33;;;5.50;99.90;;;;;;5054973;28;20048;-63
2023/01/15 07:29:24;;;;;;;11.82;2.20;;;5.50;99.90;;;;;;5054229;28;20081;-63
2023/01/15 07:31:50;;;;;;;9.05;1.95;;;5.50;99.90;;;;;;5051069;28;20033;-63
2023/01/15 07:34:16;;;;;;;11.57;2.50;;;5.50;99.90;;;;;;5048566;28;20040;-63
2023/01/15 07:36:42;;;;;;;5.22;1.50;;;5.50;99.90;;;;;;5052090;28;20044;-63
2023/01/15 07:39:09;;;;;;;9.85;2.75;;;5.50;99.90;;;;;;5033606;28;20060;-63
2023/01/15 07:50:01;;;;;;;10.35;2.30;;;5.60;99.90;;;;;;5051523;28;20571;-64
2023/01/15 07:52:26;;;;;;;8.70;2.45;;;5.50;99.90;;;;;;5049528;28;20270;-63
2023/01/15 07:54:52;;;;;;;12.13;2.67;;;5.50;99.90;;;;;;5033242;28;20045;-63
2023/01/15 07:57:20;;;;;;;8.13;2.10;;;5.50;99.90;;;;;;5049933;28;20135;-64
2023/01/15 07:59:47;;;;;;;6.35;1.95;;;5.60;99.90;;;;;;5049863;28;20052;-66
2023/01/15 08:02:12;;;;;;;13.13;2.50;;;5.60;99.90;;;;;;5036874;28;20094;-64
2023/01/15 08:04:39;;;;;;;7.00;2.13;;;5.60;99.90;;;;;;5051212;28;20551;-64
2023/01/15 08:07:05;;;;;;;10.00;2.03;;;5.60;99.90;;;;;;5032612;28;20519;-64
2023/01/15 08:09:30;;;;;;;11.93;2.60;;;5.60;99.90;;;;;;5049682;28;20041;-63
2023/01/15 08:17:33;;;;;;;13.43;2.00;;;5.70;99.90;;;;;;5041604;28;20123;-64
2023/01/15 08:20:00;;;;;;;14.23;2.90;;;5.70;99.90;;;;;;5032555;28;20056;-64
2023/01/15 08:22:25;;;;;;;6.38;1.75;;;5.70;99.90;;;;;;5050828;28;20053;-64
2023/01/15 08:24:51;;;;;;;8.70;2.17;;;5.70;99.90;;;;;;5050545;28;20431;-64
2023/01/15 08:27:17;;;;;;;9.40;2.55;;;5.70;99.90;;;;;;5032765;28;20048;-65
2023/01/15 08:29:42;;;;;;;8.50;2.25;;;5.60;99.90;;;;;;5031247;28;20335;-64
2023/01/15 08:32:08;;;;;;;8.07;2.38;;;5.70;99.90;;;;;;5048777;28;20084;-65
2023/01/15 08:34:34;;;;;;;12.38;2.17;;;5.60;99.90;;;;;;5048022;28;20156;-64
2023/01/15 08:36:59;;;;;;;10.35;2.10;;;5.60;99.90;;;;;;5049084;28;20037;-64
2023/01/15 08:39:26;;;;;;;6.50;2.05;;;5.50;99.90;;;;;;5049250;28;20140;-64
2023/01/15 08:41:53;;;;;;;14.18;2.25;;;5.50;99.90;;;;;;5046256;28;20045;-64
2023/01/15 08:44:20;;;;;;;10.13;2.10;;;5.30;99.90;;;;;;5049431;28;20056;-64
2023/01/15 08:46:46;;;;;;;10.65;2.95;;;5.20;99.90;;;;;;5045306;28;20498;-63
2023/01/15 08:49:12;;;;;;;8.02;2.10;;;5.10;99.90;;;;;;5037958;28;20045;-63
2023/01/15 08:51:38;;;;;;;9.13;2.15;;;5.10;99.90;;;;;;5048862;28;20045;-63
2023/01/15 08:54:04;;;;;;;9.00;2.53;;;5.10;99.90;;;;;;5050546;28;20043;-63
2023/01/15 08:56:29;;;;;;;8.60;2.17;;;5.10;99.90;;;;;;5032278;28;20056;-63
2023/01/15 08:58:55;;;;;;;7.75;2.33;;;5.20;99.90;;;;;;5049845;28;20414;-63
2023/01/15 09:01:21;;;;;;;11.77;2.15;;;5.20;99.90;;;;;;5050818;28;20043;-63
2023/01/15 09:03:46;;;;;;;7.95;1.83;;;5.30;99.90;;;;;;5047594;28;20041;-63
2023/01/15 09:06:12;;;;;;;9.70;1.92;;;5.40;99.90;;;;;;5055738;28;20083;-63
2023/01/15 09:08:38;;;;;;;13.45;2.63;;;5.50;99.90;;;;;;5040954;28;20474;-63
2023/01/15 09:11:06;;;;;;;11.18;2.78;;;5.60;99.90;;;;;;5031849;28;20405;-63
2023/01/15 09:13:31;;;;;;;11.18;2.28;;;5.60;99.90;;;;;;5049793;28;20474;-63
2023/01/15 09:16:01;;;;;;;11.38;1.80;;;5.70;99.90;;;;;;5051760;28;20051;-64
2023/01/15 09:18:27;;;;;;;7.65;1.90;;;5.80;99.90;;;;;;5051403;28;20374;-63
2023/01/15 09:20:53;;;;;;;11.70;2.10;;;6.00;99.90;;;;;;5052448;28;20041;-63
2023/01/15 09:23:19;;;;;;;8.88;1.90;;;6.10;99.90;;;;;;5033680;28;20049;-65
2023/01/15 09:25:58;;;;;;;9.50;2.83;;;6.20;99.90;;;;;;5033663;28;20057;-64
2023/01/15 09:28:24;;;;;;;11.90;2.17;;;6.20;99.90;;;;;;5051959;28;20378;-65
2023/01/15 09:30:50;;;;;;;10.85;2.13;;;6.30;99.90;;;;;;5051045;28;20048;-65
2023/01/15 09:33:17;;;;;;;19.92;2.70;;;6.40;99.90;;;;;;5052268;28;20078;-66
2023/01/15 09:35:43;;;;;;;9.30;1.92;;;6.40;99.90;;;;;;5051703;28;20066;-66
2023/01/15 09:38:13;;;;;;;12.90;2.17;;;6.40;99.90;;;;;;5050446;28;20462;-65
2023/01/15 09:40:55;;;;;;;9.98;2.53;;;6.50;99.90;;;;;;5034329;28;20098;-65
2023/01/15 09:43:42;;;;;;;7.75;2.03;;;6.50;99.90;;;;;;5051331;28;20040;-66
2023/01/15 09:46:19;;;;;;;14.23;3.40;;;6.50;99.90;;;;;;5050975;28;20359;-66
2023/01/15 09:49:03;;;;;;;7.50;1.77;;;6.50;99.90;;;;;;5050776;28;20041;-65
2023/01/15 09:51:49;;;;;;;8.18;2.67;;;6.50;99.90;;;;;;5050572;28;20076;-66
2023/01/15 09:54:42;;;;;;;11.10;2.80;;;6.40;99.90;;;;;;5034671;28;20482;-66
2023/01/15 09:57:13;;;;;;;10.93;2.25;;;6.30;99.90;;;;;;5050733;28;20036;-65
2023/01/15 09:59:44;;;;;;;12.02;2.55;;;6.10;99.90;;;;;;5049671;28;20102;-67
2023/01/15 10:02:37;;;;;;;16.95;2.40;;;6.00;99.90;;;;;;5034361;28;20048;-66
2023/01/15 10:05:28;;;;;;;11.90;2.67;;;6.10;99.90;;;;;;5031643;28;20801;-62
2023/01/15 10:08:05;;;;;;;7.35;1.98;;;6.10;99.90;;;;;;5042884;28;20041;-63
2023/01/15 10:10:49;;;;;;;5.72;2.25;;;6.20;99.90;;;;;;5049831;28;20041;-64
2023/01/15 10:13:33;;;;;;;6.68;1.88;;;6.40;99.90;;;;;;5052042;28;20081;-63
2023/01/15 10:15:58;;;;;;;5.90;2.15;;;6.40;99.90;;;;;;5034469;28;20045;-64
2023/01/15 10:18:26;;;;;;;11.30;2.28;;;6.40;99.90;;;;;;5050707;28;20542;-64
2023/01/15 10:21:21;;;;;;;7.60;2.33;;;6.50;99.90;;;;;;5031734;28;20473;-64
2023/01/15 10:24:26;;;;;;;6.20;1.50;;;6.40;99.90;;;;;;5049858;28;20061;-64
2023/01/15 10:26:56;;;;;;;7.20;2.10;;;6.30;99.90;;;;;;5013929;28;20056;-64
2023/01/15 10:29:30;;;;;;;8.80;1.80;;;6.20;99.90;;;;;;5051790;28;20041;-64
2023/01/15 10:32:02;;;;;;;6.90;1.45;;;6.20;99.90;;;;;;5049672;28;20094;-64
2023/01/15 10:34:49;;;;;;;8.15;2.88;;;6.20;99.90;;;;;;5033232;28;20041;-64
2023/01/15 10:37:45;;;;;;;7.88;1.90;;;6.20;99.90;;;;;;5051709;28;20033;-64
2023/01/15 10:40:38;;;;;;;9.13;1.88;;;6.30;99.90;;;;;;5037402;28;20049;-64
2023/01/15 10:43:09;;;;;;;9.18;2.38;;;6.40;99.90;;;;;;5050458;28;20126;-64
2023/01/15 10:45:51;;;;;;;8.23;1.90;;;6.50;99.90;;;;;;5051167;28;20119;-64
2023/01/15 10:48:37;;;;;;;9.07;2.65;;;6.70;99.90;;;;;;5033409;28;20137;-65
2023/01/15 10:51:20;;;;;;;7.93;2.30;;;6.90;99.90;;;;;;5050335;28;20498;-65
2023/01/15 10:54:00;;;;;;;11.20;3.03;;;7.00;99.90;;;;;;5050281;28;20064;-64
2023/01/15 10:56:32;;;;;;;14.60;2.70;;;7.10;99.90;;;;;;5050638;28;20043;-64
2023/01/15 10:59:04;;;;;;;9.93;2.47;;;7.10;99.90;;;;;;5053273;28;20068;-64
2023/01/15 11:01:30;;;;;;;10.60;2.95;;;7.10;99.90;;;;;;5053637;28;20116;-64
2023/01/15 11:03:55;;;;;;;8.63;2.35;;;7.10;99.90;;;;;;5055352;28;20112;-64
2023/01/15 11:06:24;;;;;;;11.73;3.08;;;7.10;99.90;;;;;;5054619;28;20113;-64
2023/01/15 11:08:55;;;;;;;7.97;2.40;;;7.10;99.90;;;;;;5069780;28;20159;-64
2023/01/15 11:20:36;;;;;;;14.38;2.85;;;6.90;99.90;;;;;;5054230;28;20045;-64
2023/01/15 11:23:16;;;;;;;9.70;2.60;;;6.90;99.90;;;;;;5053445;28;20037;-64
2023/01/15 11:25:58;;;;;;;15.38;2.97;;;6.80;99.90;;;;;;5054598;28;20605;-64
2023/01/15 11:28:41;;;;;;;12.30;3.17;;;6.70;99.90;;;;;;5055405;28;20049;-64
2023/01/15 11:31:09;;;;;;;9.10;3.00;;;6.70;99.90;;;;;;5036505;28;20056;-65
2023/01/15 11:33:35;;;;;;;11.35;2.83;;;6.60;99.90;;;;;;5053525;28;20040;-65
2023/01/15 11:36:06;;;;;;;13.35;2.72;;;6.50;99.90;;;;;;5054934;28;20033;-63
2023/01/15 11:38:46;;;;;;;10.80;2.53;;;6.40;99.90;;;;;;5053761;28;20072;-64
2023/01/15 11:41:20;;;;;;;8.23;2.80;;;6.40;99.90;;;;;;5053368;28;20090;-64
2023/01/15 11:52:19;;;;;;;10.68;2.47;;;6.30;99.90;;;;;;5053041;28;20049;-63
2023/01/15 11:54:49;;;;;;;12.88;3.30;;;6.30;99.90;;;;;;5051959;28;20486;-64
2023/01/15 11:57:24;;;;;;;12.68;2.70;;;6.20;99.90;;;;;;5040788;28;20437;-63
2023/01/15 11:59:50;;;;;;;10.70;2.20;;;6.10;99.90;;;;;;5023420;28;20048;-63
2023/01/15 12:02:28;;;;;;;11.50;3.38;;;6.00;99.90;;;;;;5052447;28;20047;-63
2023/01/15 12:04:58;;;;;;;8.70;3.00;;;5.90;99.90;;;;;;5052770;28;20500;-62
2023/01/15 12:07:25;;;;;;;24.70;8.93;;;5.90;99.90;;;;;;5052435;28;20402;-62
2023/01/15 12:10:13;;;;;;;8.50;2.70;;;5.90;99.90;;;;;;5032498;28;20123;-62
2023/01/15 12:13:11;;;;;;;10.45;2.33;;;5.80;99.90;;;;;;5048564;28;20046;-62
2023/01/15 12:15:50;;;;;;;6.80;2.20;;;5.80;99.90;;;;;;5037322;28;20060;-63
2023/01/15 12:18:25;;;;;;;7.20;1.90;;;5.80;99.90;;;;;;5053171;28;20474;-63
2023/01/15 12:21:01;;;;;;;;;;;5.80;99.90;;;;;;5052939;28;20437;-63
2023/01/15 12:23:33;;;;;;;11.27;2.70;;;5.80;99.90;;;;;;5054258;28;19928;-63
2023/01/15 12:26:16;;;;;;;9.93;2.33;;;5.80;99.90;;;;;;5040932;28;20045;-63
2023/01/15 12:29:00;;;;;;;11.60;2.78;;;5.80;99.90;;;;;;5039761;28;20048;-63
2023/01/15 12:31:36;;;;;;;10.38;2.08;;;5.80;99.90;;;;;;5051503;28;20037;-62
2023/01/15 12:34:22;;;;;;;14.30;4.43;;;5.80;99.90;;;;;;5046962;28;20171;-63
2023/01/15 12:36:54;;;;;;;12.75;2.60;;;5.90;99.90;;;;;;5029159;28;20041;-63
2023/01/15 12:39:45;;;;;;;11.80;2.28;;;5.90;99.90;;;;;;5054068;28;20102;-63
2023/01/15 12:45:09;;;;;;;10.85;2.97;;;5.90;99.90;;;;;;5050619;28;20056;-63
2023/01/15 12:48:12;;;;;;;10.75;2.65;;;5.90;99.90;;;;;;5050251;28;20037;-63
2023/01/15 12:50:46;;;;;;;11.98;3.10;;;5.90;99.90;;;;;;5049580;28;20053;-63
2023/01/15 12:53:39;;;;;;;16.63;3.45;;;5.90;99.90;;;;;;5049010;28;20414;-63
2023/01/15 12:56:11;;;;;;;9.35;2.30;;;5.90;99.90;;;;;;5049679;28;20045;-63
2023/01/15 12:58:52;;;;;;;11.43;2.80;;;5.90;99.90;;;;;;5050654;28;20128;-63
2023/01/15 13:01:37;;;;;;;12.48;2.92;;;5.90;99.90;;;;;;5048633;28;20044;-63
2023/01/15 13:04:06;;;;;;;10.38;3.03;;;5.90;99.90;;;;;;5049504;28;20052;-62
2023/01/15 13:06:33;;;;;;;12.60;3.17;;;5.90;99.90;;;;;;5049532;28;20135;-62
2023/01/15 13:09:13;;;;;;;9.57;2.08;;;5.90;99.90;;;;;;5049586;28;20468;-61
2023/01/15 13:11:39;;;;;;;8.23;1.92;;;5.80;99.90;;;;;;5049819;28;20486;-61
2023/01/15 13:14:14;;;;;;;8.65;2.63;;;5.70;99.90;;;;;;5048801;28;20095;-61
2023/01/15 13:16:46;;;;;;;8.90;2.22;;;5.70;99.90;;;;;;5048055;28;20044;-61
2023/01/15 13:19:35;;;;;;;6.30;2.83;;;5.60;99.90;;;;;;5050529;28;20033;-61
2023/01/15 13:22:17;;;;;;;20.73;9.80;;;5.60;99.90;;;;;;5047615;28;20036;-61
2023/01/15 13:25:07;;;;;;;8.48;3.42;;;5.40;99.90;;;;;;5047728;28;20053;-60
2023/01/15 13:27:48;;;;;;;5.22;1.90;;;5.30;99.90;;;;;;5048801;28;20090;-61
2023/01/15 13:30:17;;;;;;;10.88;5.30;;;5.20;99.90;;;;;;5048426;28;20402;-61
2023/01/15 13:32:57;;;;;;;11.57;6.63;;;5.20;99.90;;;;;;5049517;28;20041;-61
2023/01/15 13:35:32;;;;;;;9.75;4.57;;;5.20;99.90;;;;;;5049092;28;20116;-61
2023/01/15 13:38:10;;;;;;;7.53;3.50;;;5.20;99.90;;;;;;5047248;28;20053;-61
2023/01/15 13:40:40;;;;;;;11.65;2.50;;;5.20;99.90;;;;;;5048825;28;20690;-61
2023/01/15 13:43:08;;;;;;;19.95;11.88;;;5.20;99.90;;;;;;5049211;28;20823;-62
2023/01/15 13:45:41;;;;;;;19.35;8.88;;;5.30;99.90;;;;;;5049243;28;20053;-61
2023/01/15 13:48:22;;;;;;;23.08;9.65;;;5.40;99.90;;;;;;5049576;28;20043;-62
2023/01/15 13:51:03;;;;;;;19.00;11.85;;;5.40;99.90;;;;;;5048178;28;20053;-61
2023/01/15 13:53:34;;;;;;;12.43;6.03;;;5.50;99.90;;;;;;5031109;28;20098;-61
2023/01/15 13:56:06;;;;;;;11.38;3.75;;;5.60;99.90;;;;;;5048370;28;20389;-63
2023/01/15 13:58:34;;;;;;;17.08;9.65;;;5.60;99.90;;;;;;5048072;28;20048;-62
2023/01/15 14:01:19;;;;;;;10.82;4.00;;;5.70;99.90;;;;;;5049657;28;20053;-62
2023/01/15 14:04:03;;;;;;;9.65;3.40;;;5.80;99.90;;;;;;5049126;28;20048;-63
2023/01/15 14:06:44;;;;;;;13.95;2.47;;;5.90;99.90;;;;;;5048745;28;20051;-62
2023/01/15 14:09:25;;;;;;;11.07;3.45;;;6.00;99.90;;;;;;5044339;28;20087;-63
2023/01/15 14:12:00;;;;;;;12.30;2.78;;;6.10;99.90;;;;;;5048714;28;20041;-62